sensor_id;sensor_type;location;lat;lon;timestamp;P1;durP1;ratioP1;P2;durP2;ratioP2
54929;SDS011;40833;53.238;6.576;2022-12-13T00:01:26;78.10;;;30.20;;
54929;SDS011;40833;53.238;6.576;2022-12-13T00:03:53;68.53;;;29.57;;
54929;SDS011;40833;53.238;6.576;2022-12-13T00:06:20;72.83;;;29.53;;
54929;SDS011;40833;53.238;6.576;2022-12-13T00:08:45;64.60;;;28.97;;
54929;SDS011;40833;53.238;6.576;2022-12-13T00:11:11;71.37;;;31.30;;
54929;SDS011;40833;53.238;6.576;2022-12-13T00:13:38;73.37;;;29.83;;
54929;SDS011;40833;53.238;6.576;2022-12-13T00:16:06;74.37;;;30.37;;
54929;SDS011;40833;53.238;6.576;2022-12-13T00:18:35;70.43;;;30.63;;
54929;SDS011;40833;53.238;6.576;2022-12-13T00:21:04;70.30;;;28.77;;
54929;SDS011;40833;53.238;6.576;2022-12-13T00:23:35;72.47;;;29.00;;
54929;SDS011;40833;53.238;6.576;2022-12-13T00:26:02;67.23;;;27.63;;
54929;SDS011;40833;53.238;6.576;2022-12-13T00:28:32;72.47;;;29.50;;
54929;SDS011;40833;53.238;6.576;2022-12-13T00:30:58;64.90;;;27.77;;
54929;SDS011;40833;53.238;6.576;2022-12-13T00:33:25;81.60;;;30.70;;
54929;SDS011;40833;53.238;6.576;2022-12-13T00:35:52;66.50;;;27.20;;
54929;SDS011;40833;53.238;6.576;2022-12-13T00:38:17;68.23;;;28.53;;
54929;SDS011;40833;53.238;6.576;2022-12-13T00:40:43;64.70;;;28.47;;
54929;SDS011;40833;53.238;6.576;2022-12-13T00:43:09;62.33;;;26.40;;
54929;SDS011;40833;53.238;6.576;2022-12-13T00:45:35;62.23;;;26.33;;
54929;SDS011;40833;53.238;6.576;2022-12-13T00:48:02;62.43;;;26.67;;
54929;SDS011;40833;53.238;6.576;2022-12-13T00:50:28;71.80;;;28.33;;
54929;SDS011;40833;53.238;6.576;2022-12-13T00:52:54;61.73;;;27.10;;
54929;SDS011;40833;53.238;6.576;2022-12-13T00:55:20;60.87;;;26.47;;
54929;SDS011;40833;53.238;6.576;2022-12-13T00:57:46;66.40;;;27.67;;
54929;SDS011;40833;53.238;6.576;2022-12-13T01:00:11;62.10;;;25.30;;
54929;SDS011;40833;53.238;6.576;2022-12-13T01:02:37;64.67;;;26.07;;
54929;SDS011;40833;53.238;6.576;2022-12-13T01:05:04;61.87;;;25.83;;
54929;SDS011;40833;53.238;6.576;2022-12-13T01:07:29;59.50;;;26.50;;
54929;SDS011;40833;53.238;6.576;2022-12-13T01:09:56;58.90;;;26.50;;
54929;SDS011;40833;53.238;6.576;2022-12-13T01:12:22;65.63;;;26.80;;
54929;SDS011;40833;53.238;6.576;2022-12-13T01:14:48;58.73;;;26.00;;
54929;SDS011;40833;53.238;6.576;2022-12-13T01:17:14;67.30;;;27.40;;
54929;SDS011;40833;53.238;6.576;2022-12-13T01:19:39;59.60;;;26.30;;
54929;SDS011;40833;53.238;6.576;2022-12-13T01:22:05;67.87;;;26.33;;
54929;SDS011;40833;53.238;6.576;2022-12-13T01:24:32;70.23;;;27.73;;
54929;SDS011;40833;53.238;6.576;2022-12-13T01:26:58;70.17;;;25.97;;
54929;SDS011;40833;53.238;6.576;2022-12-13T01:29:24;66.10;;;27.57;;
54929;SDS011;40833;53.238;6.576;2022-12-13T01:31:51;60.90;;;27.03;;
54929;SDS011;40833;53.238;6.576;2022-12-13T01:34:18;59.70;;;25.70;;
54929;SDS011;40833;53.238;6.576;2022-12-13T01:36:45;59.17;;;25.60;;
54929;SDS011;40833;53.238;6.576;2022-12-13T01:39:12;61.00;;;25.57;;
54929;SDS011;40833;53.238;6.576;2022-12-13T01:41:39;60.63;;;26.23;;
54929;SDS011;40833;53.238;6.576;2022-12-13T01:44:06;55.10;;;25.10;;
54929;SDS011;40833;53.238;6.576;2022-12-13T01:46:52;53.97;;;23.00;;
54929;SDS011;40833;53.238;6.576;2022-12-13T01:49:17;53.13;;;24.03;;
54929;SDS011;40833;53.238;6.576;2022-12-13T01:54:13;52.47;;;23.50;;
54929;SDS011;40833;53.238;6.576;2022-12-13T01:56:43;56.63;;;24.73;;
54929;SDS011;40833;53.238;6.576;2022-12-13T01:59:13;50.53;;;23.70;;
54929;SDS011;40833;53.238;6.576;2022-12-13T02:01:41;57.03;;;23.73;;
54929;SDS011;40833;53.238;6.576;2022-12-13T02:04:07;57.27;;;24.47;;
54929;SDS011;40833;53.238;6.576;2022-12-13T02:06:35;55.33;;;23.97;;
54929;SDS011;40833;53.238;6.576;2022-12-13T02:09:06;55.22;;;24.80;;
54929;SDS011;40833;53.238;6.576;2022-12-13T02:11:34;47.73;;;23.17;;
54929;SDS011;40833;53.238;6.576;2022-12-13T02:14:02;54.40;;;24.07;;
54929;SDS011;40833;53.238;6.576;2022-12-13T02:28:07;53.57;;;23.63;;
54929;SDS011;40833;53.238;6.576;2022-12-13T02:30:43;58.03;;;24.40;;
54929;SDS011;40833;53.238;6.576;2022-12-13T02:33:24;57.60;;;23.30;;
54929;SDS011;40833;53.238;6.576;2022-12-13T02:35:59;55.63;;;23.50;;
54929;SDS011;40833;53.238;6.576;2022-12-13T02:38:39;57.43;;;22.13;;
54929;SDS011;40833;53.238;6.576;2022-12-13T02:41:40;59.03;;;24.73;;
54929;SDS011;40833;53.238;6.576;2022-12-13T02:44:16;58.87;;;24.83;;
54929;SDS011;40833;53.238;6.576;2022-12-13T02:46:45;67.05;;;25.08;;
54929;SDS011;40833;53.238;6.576;2022-12-13T02:49:17;56.17;;;25.67;;
54929;SDS011;40833;53.238;6.576;2022-12-13T02:51:45;55.07;;;24.63;;
54929;SDS011;40833;53.238;6.576;2022-12-13T02:54:11;53.47;;;23.90;;
54929;SDS011;40833;53.238;6.576;2022-12-13T02:56:37;51.73;;;23.53;;
54929;SDS011;40833;53.238;6.576;2022-12-13T02:59:04;53.27;;;25.00;;
54929;SDS011;40833;53.238;6.576;2022-12-13T03:01:48;61.80;;;24.50;;
54929;SDS011;40833;53.238;6.576;2022-12-13T03:04:41;47.90;;;22.60;;
54929;SDS011;40833;53.238;6.576;2022-12-13T03:07:45;54.17;;;23.90;;
54929;SDS011;40833;53.238;6.576;2022-12-13T03:10:36;52.10;;;22.03;;
54929;SDS011;40833;53.238;6.576;2022-12-13T03:13:12;51.40;;;23.37;;
54929;SDS011;40833;53.238;6.576;2022-12-13T03:16:04;55.40;;;23.87;;
54929;SDS011;40833;53.238;6.576;2022-12-13T03:18:34;52.93;;;23.93;;
54929;SDS011;40833;53.238;6.576;2022-12-13T03:21:04;53.00;;;23.10;;
54929;SDS011;40833;53.238;6.576;2022-12-13T03:23:33;55.78;;;22.80;;
54929;SDS011;40833;53.238;6.576;2022-12-13T03:26:21;49.47;;;22.67;;
54929;SDS011;40833;53.238;6.576;2022-12-13T03:28:48;53.43;;;23.23;;
54929;SDS011;40833;53.238;6.576;2022-12-13T03:31:14;52.67;;;23.17;;
54929;SDS011;40833;53.238;6.576;2022-12-13T03:33:39;56.87;;;25.30;;
54929;SDS011;40833;53.238;6.576;2022-12-13T03:36:06;60.63;;;25.87;;
54929;SDS011;40833;53.238;6.576;2022-12-13T03:38:32;58.83;;;25.70;;
54929;SDS011;40833;53.238;6.576;2022-12-13T03:40:59;62.47;;;26.07;;
54929;SDS011;40833;53.238;6.576;2022-12-13T03:43:28;53.90;;;24.03;;
54929;SDS011;40833;53.238;6.576;2022-12-13T03:45:54;57.17;;;24.83;;
54929;SDS011;40833;53.238;6.576;2022-12-13T03:48:20;58.50;;;25.43;;
54929;SDS011;40833;53.238;6.576;2022-12-13T03:50:46;54.80;;;24.77;;
54929;SDS011;40833;53.238;6.576;2022-12-13T03:53:12;59.30;;;24.10;;
54929;SDS011;40833;53.238;6.576;2022-12-13T03:55:38;55.80;;;25.93;;
54929;SDS011;40833;53.238;6.576;2022-12-13T03:58:03;50.90;;;25.00;;
54929;SDS011;40833;53.238;6.576;2022-12-13T04:00:29;58.40;;;25.00;;
54929;SDS011;40833;53.238;6.576;2022-12-13T04:02:55;59.73;;;25.00;;
54929;SDS011;40833;53.238;6.576;2022-12-13T04:05:20;54.60;;;24.60;;
54929;SDS011;40833;53.238;6.576;2022-12-13T04:07:46;51.57;;;24.00;;
54929;SDS011;40833;53.238;6.576;2022-12-13T04:10:12;55.33;;;24.77;;
54929;SDS011;40833;53.238;6.576;2022-12-13T04:12:38;53.10;;;24.50;;
54929;SDS011;40833;53.238;6.576;2022-12-13T04:15:22;57.00;;;24.33;;
54929;SDS011;40833;53.238;6.576;2022-12-13T04:17:48;51.83;;;23.97;;
54929;SDS011;40833;53.238;6.576;2022-12-13T04:20:13;50.47;;;23.90;;
54929;SDS011;40833;53.238;6.576;2022-12-13T04:22:39;52.33;;;25.03;;
54929;SDS011;40833;53.238;6.576;2022-12-13T04:25:05;52.23;;;24.67;;
54929;SDS011;40833;53.238;6.576;2022-12-13T04:27:31;55.63;;;24.53;;
54929;SDS011;40833;53.238;6.576;2022-12-13T04:29:57;50.27;;;23.20;;
54929;SDS011;40833;53.238;6.576;2022-12-13T04:32:23;45.43;;;22.40;;
54929;SDS011;40833;53.238;6.576;2022-12-13T04:34:48;48.43;;;23.50;;
54929;SDS011;40833;53.238;6.576;2022-12-13T04:37:14;51.83;;;23.40;;
54929;SDS011;40833;53.238;6.576;2022-12-13T04:39:39;52.40;;;23.60;;
54929;SDS011;40833;53.238;6.576;2022-12-13T04:42:05;59.13;;;24.30;;
54929;SDS011;40833;53.238;6.576;2022-12-13T04:44:31;58.87;;;24.77;;
54929;SDS011;40833;53.238;6.576;2022-12-13T04:46:57;46.67;;;23.13;;
54929;SDS011;40833;53.238;6.576;2022-12-13T04:49:23;44.93;;;22.00;;
54929;SDS011;40833;53.238;6.576;2022-12-13T04:51:49;51.93;;;23.60;;
54929;SDS011;40833;53.238;6.576;2022-12-13T04:54:14;59.10;;;22.97;;
54929;SDS011;40833;53.238;6.576;2022-12-13T04:56:40;49.67;;;23.03;;
54929;SDS011;40833;53.238;6.576;2022-12-13T04:59:06;52.63;;;23.27;;
54929;SDS011;40833;53.238;6.576;2022-12-13T05:01:31;49.27;;;23.10;;
54929;SDS011;40833;53.238;6.576;2022-12-13T05:03:58;47.30;;;22.53;;
54929;SDS011;40833;53.238;6.576;2022-12-13T05:06:25;47.30;;;23.20;;
54929;SDS011;40833;53.238;6.576;2022-12-13T05:08:51;55.50;;;24.27;;
54929;SDS011;40833;53.238;6.576;2022-12-13T05:11:17;51.73;;;22.83;;
54929;SDS011;40833;53.238;6.576;2022-12-13T05:13:42;50.03;;;24.33;;
54929;SDS011;40833;53.238;6.576;2022-12-13T05:16:08;43.47;;;20.93;;
54929;SDS011;40833;53.238;6.576;2022-12-13T05:18:34;45.27;;;22.10;;
54929;SDS011;40833;53.238;6.576;2022-12-13T05:21:04;49.87;;;21.97;;
54929;SDS011;40833;53.238;6.576;2022-12-13T05:23:32;46.83;;;22.27;;
54929;SDS011;40833;53.238;6.576;2022-12-13T05:25:58;41.63;;;21.57;;
54929;SDS011;40833;53.238;6.576;2022-12-13T05:28:24;52.00;;;23.10;;
54929;SDS011;40833;53.238;6.576;2022-12-13T05:30:52;50.40;;;22.27;;
54929;SDS011;40833;53.238;6.576;2022-12-13T05:33:20;52.27;;;22.47;;
54929;SDS011;40833;53.238;6.576;2022-12-13T05:35:46;46.00;;;22.87;;
54929;SDS011;40833;53.238;6.576;2022-12-13T05:38:11;47.50;;;22.30;;
54929;SDS011;40833;53.238;6.576;2022-12-13T05:40:37;47.57;;;20.97;;
54929;SDS011;40833;53.238;6.576;2022-12-13T05:43:03;47.77;;;21.87;;
54929;SDS011;40833;53.238;6.576;2022-12-13T05:45:29;44.37;;;21.43;;
54929;SDS011;40833;53.238;6.576;2022-12-13T05:47:56;49.83;;;22.70;;
54929;SDS011;40833;53.238;6.576;2022-12-13T05:50:22;48.90;;;22.33;;
54929;SDS011;40833;53.238;6.576;2022-12-13T05:52:48;41.13;;;21.43;;
54929;SDS011;40833;53.238;6.576;2022-12-13T05:55:14;49.57;;;22.30;;
54929;SDS011;40833;53.238;6.576;2022-12-13T05:57:39;48.10;;;21.40;;
54929;SDS011;40833;53.238;6.576;2022-12-13T06:00:06;50.63;;;22.17;;
54929;SDS011;40833;53.238;6.576;2022-12-13T06:02:37;46.17;;;20.73;;
54929;SDS011;40833;53.238;6.576;2022-12-13T06:05:04;46.00;;;21.83;;
54929;SDS011;40833;53.238;6.576;2022-12-13T06:07:30;45.43;;;21.87;;
54929;SDS011;40833;53.238;6.576;2022-12-13T06:09:56;45.77;;;21.40;;
54929;SDS011;40833;53.238;6.576;2022-12-13T06:12:21;50.00;;;22.43;;
54929;SDS011;40833;53.238;6.576;2022-12-13T06:14:48;45.60;;;21.57;;
54929;SDS011;40833;53.238;6.576;2022-12-13T06:17:14;54.43;;;22.13;;
54929;SDS011;40833;53.238;6.576;2022-12-13T06:19:39;49.07;;;21.77;;
54929;SDS011;40833;53.238;6.576;2022-12-13T06:22:05;43.23;;;19.50;;
54929;SDS011;40833;53.238;6.576;2022-12-13T06:24:31;45.43;;;21.57;;
54929;SDS011;40833;53.238;6.576;2022-12-13T06:26:57;45.23;;;22.73;;
54929;SDS011;40833;53.238;6.576;2022-12-13T06:29:24;45.90;;;23.13;;
54929;SDS011;40833;53.238;6.576;2022-12-13T06:31:54;48.40;;;22.23;;
54929;SDS011;40833;53.238;6.576;2022-12-13T06:34:21;47.27;;;22.13;;
54929;SDS011;40833;53.238;6.576;2022-12-13T06:36:47;43.10;;;21.50;;
54929;SDS011;40833;53.238;6.576;2022-12-13T06:39:13;45.70;;;23.47;;
54929;SDS011;40833;53.238;6.576;2022-12-13T06:41:42;45.83;;;22.80;;
54929;SDS011;40833;53.238;6.576;2022-12-13T06:44:08;43.50;;;21.63;;
54929;SDS011;40833;53.238;6.576;2022-12-13T06:46:34;52.20;;;23.57;;
54929;SDS011;40833;53.238;6.576;2022-12-13T06:49:00;45.47;;;21.40;;
54929;SDS011;40833;53.238;6.576;2022-12-13T06:51:26;51.10;;;24.70;;
54929;SDS011;40833;53.238;6.576;2022-12-13T06:53:52;46.07;;;23.10;;
54929;SDS011;40833;53.238;6.576;2022-12-13T06:56:18;47.33;;;22.90;;
54929;SDS011;40833;53.238;6.576;2022-12-13T06:58:43;49.27;;;24.60;;
54929;SDS011;40833;53.238;6.576;2022-12-13T07:01:10;50.63;;;22.90;;
54929;SDS011;40833;53.238;6.576;2022-12-13T07:03:38;50.07;;;24.30;;
54929;SDS011;40833;53.238;6.576;2022-12-13T07:06:14;50.70;;;23.23;;
54929;SDS011;40833;53.238;6.576;2022-12-13T07:08:47;49.57;;;24.33;;
54929;SDS011;40833;53.238;6.576;2022-12-13T07:11:15;51.03;;;24.87;;
54929;SDS011;40833;53.238;6.576;2022-12-13T07:13:43;54.37;;;25.47;;
54929;SDS011;40833;53.238;6.576;2022-12-13T07:16:09;53.53;;;26.30;;
54929;SDS011;40833;53.238;6.576;2022-12-13T07:18:36;61.27;;;26.60;;
54929;SDS011;40833;53.238;6.576;2022-12-13T07:21:03;52.30;;;25.80;;
54929;SDS011;40833;53.238;6.576;2022-12-13T07:23:29;61.53;;;25.77;;
54929;SDS011;40833;53.238;6.576;2022-12-13T07:25:55;49.87;;;26.57;;
54929;SDS011;40833;53.238;6.576;2022-12-13T07:28:21;50.17;;;24.90;;
54929;SDS011;40833;53.238;6.576;2022-12-13T07:30:46;58.90;;;25.50;;
54929;SDS011;40833;53.238;6.576;2022-12-13T07:33:13;50.30;;;25.00;;
54929;SDS011;40833;53.238;6.576;2022-12-13T07:35:39;63.90;;;27.27;;
54929;SDS011;40833;53.238;6.576;2022-12-13T07:38:06;65.17;;;27.50;;
54929;SDS011;40833;53.238;6.576;2022-12-13T07:40:33;60.27;;;27.90;;
54929;SDS011;40833;53.238;6.576;2022-12-13T07:43:00;63.87;;;28.23;;
54929;SDS011;40833;53.238;6.576;2022-12-13T07:45:25;61.63;;;26.97;;
54929;SDS011;40833;53.238;6.576;2022-12-13T07:47:51;63.37;;;28.27;;
54929;SDS011;40833;53.238;6.576;2022-12-13T07:50:17;57.37;;;27.20;;
54929;SDS011;40833;53.238;6.576;2022-12-13T07:52:49;60.80;;;26.10;;
54929;SDS011;40833;53.238;6.576;2022-12-13T07:55:16;62.10;;;26.40;;
54929;SDS011;40833;53.238;6.576;2022-12-13T07:57:44;58.87;;;26.67;;
54929;SDS011;40833;53.238;6.576;2022-12-13T08:00:10;67.50;;;27.00;;
54929;SDS011;40833;53.238;6.576;2022-12-13T08:02:38;60.73;;;25.70;;
54929;SDS011;40833;53.238;6.576;2022-12-13T08:05:05;55.53;;;25.83;;
54929;SDS011;40833;53.238;6.576;2022-12-13T08:07:31;56.53;;;27.30;;
54929;SDS011;40833;53.238;6.576;2022-12-13T08:09:57;59.80;;;25.73;;
54929;SDS011;40833;53.238;6.576;2022-12-13T08:12:22;57.27;;;25.67;;
54929;SDS011;40833;53.238;6.576;2022-12-13T08:14:48;55.93;;;25.73;;
54929;SDS011;40833;53.238;6.576;2022-12-13T08:17:15;61.53;;;28.07;;
54929;SDS011;40833;53.238;6.576;2022-12-13T08:19:40;54.37;;;27.43;;
54929;SDS011;40833;53.238;6.576;2022-12-13T08:22:06;50.63;;;26.67;;
54929;SDS011;40833;53.238;6.576;2022-12-13T08:24:32;53.93;;;26.37;;
54929;SDS011;40833;53.238;6.576;2022-12-13T08:27:00;54.47;;;25.60;;
54929;SDS011;40833;53.238;6.576;2022-12-13T08:29:27;57.80;;;26.13;;
54929;SDS011;40833;53.238;6.576;2022-12-13T08:31:53;58.70;;;27.20;;
54929;SDS011;40833;53.238;6.576;2022-12-13T08:34:19;63.20;;;26.90;;
54929;SDS011;40833;53.238;6.576;2022-12-13T08:36:44;57.60;;;26.73;;
54929;SDS011;40833;53.238;6.576;2022-12-13T08:39:10;59.10;;;27.43;;
54929;SDS011;40833;53.238;6.576;2022-12-13T08:41:36;60.30;;;26.53;;
54929;SDS011;40833;53.238;6.576;2022-12-13T08:44:01;54.50;;;26.80;;
54929;SDS011;40833;53.238;6.576;2022-12-13T08:46:27;63.27;;;28.57;;
54929;SDS011;40833;53.238;6.576;2022-12-13T08:48:53;67.33;;;28.37;;
54929;SDS011;40833;53.238;6.576;2022-12-13T08:51:18;57.47;;;28.43;;
54929;SDS011;40833;53.238;6.576;2022-12-13T08:53:48;61.50;;;29.20;;
54929;SDS011;40833;53.238;6.576;2022-12-13T08:56:14;72.63;;;29.57;;
54929;SDS011;40833;53.238;6.576;2022-12-13T08:58:42;58.93;;;28.43;;
54929;SDS011;40833;53.238;6.576;2022-12-13T09:01:09;66.07;;;29.07;;
54929;SDS011;40833;53.238;6.576;2022-12-13T09:03:35;53.70;;;27.37;;
54929;SDS011;40833;53.238;6.576;2022-12-13T09:06:05;55.10;;;27.73;;
54929;SDS011;40833;53.238;6.576;2022-12-13T09:08:32;56.70;;;27.67;;
54929;SDS011;40833;53.238;6.576;2022-12-13T09:10:58;58.13;;;27.57;;
54929;SDS011;40833;53.238;6.576;2022-12-13T09:13:24;62.03;;;27.93;;
54929;SDS011;40833;53.238;6.576;2022-12-13T09:15:51;60.00;;;28.03;;
54929;SDS011;40833;53.238;6.576;2022-12-13T09:18:16;59.63;;;28.67;;
54929;SDS011;40833;53.238;6.576;2022-12-13T09:20:42;53.07;;;27.13;;
54929;SDS011;40833;53.238;6.576;2022-12-13T09:23:08;55.57;;;27.67;;
54929;SDS011;40833;53.238;6.576;2022-12-13T09:25:34;59.10;;;26.67;;
54929;SDS011;40833;53.238;6.576;2022-12-13T09:28:00;58.60;;;27.27;;
54929;SDS011;40833;53.238;6.576;2022-12-13T09:30:26;57.80;;;28.67;;
54929;SDS011;40833;53.238;6.576;2022-12-13T09:32:52;53.63;;;27.17;;
54929;SDS011;40833;53.238;6.576;2022-12-13T09:35:18;60.57;;;27.20;;
54929;SDS011;40833;53.238;6.576;2022-12-13T09:37:43;56.80;;;27.03;;
54929;SDS011;40833;53.238;6.576;2022-12-13T09:40:11;57.83;;;28.77;;
54929;SDS011;40833;53.238;6.576;2022-12-13T09:42:46;53.30;;;26.63;;
54929;SDS011;40833;53.238;6.576;2022-12-13T09:45:14;54.87;;;25.87;;
54929;SDS011;40833;53.238;6.576;2022-12-13T09:47:40;49.10;;;26.87;;
54929;SDS011;40833;53.238;6.576;2022-12-13T09:50:10;52.23;;;26.63;;
54929;SDS011;40833;53.238;6.576;2022-12-13T09:52:49;48.47;;;25.90;;
54929;SDS011;40833;53.238;6.576;2022-12-13T09:55:48;49.83;;;24.97;;
54929;SDS011;40833;53.238;6.576;2022-12-13T10:00:56;51.63;;;23.47;;
54929;SDS011;40833;53.238;6.576;2022-12-13T10:03:23;52.03;;;26.67;;
54929;SDS011;40833;53.238;6.576;2022-12-13T10:08:34;52.27;;;24.73;;
54929;SDS011;40833;53.238;6.576;2022-12-13T10:11:02;48.10;;;23.67;;
54929;SDS011;40833;53.238;6.576;2022-12-13T10:13:44;47.40;;;23.87;;
54929;SDS011;40833;53.238;6.576;2022-12-13T10:19:10;44.03;;;22.60;;
54929;SDS011;40833;53.238;6.576;2022-12-13T10:21:41;43.37;;;22.73;;
54929;SDS011;40833;53.238;6.576;2022-12-13T10:24:13;50.70;;;23.73;;
54929;SDS011;40833;53.238;6.576;2022-12-13T10:26:39;43.77;;;23.50;;
54929;SDS011;40833;53.238;6.576;2022-12-13T10:29:05;47.97;;;23.17;;
54929;SDS011;40833;53.238;6.576;2022-12-13T10:31:43;47.93;;;22.57;;
54929;SDS011;40833;53.238;6.576;2022-12-13T10:34:24;48.00;;;22.50;;
54929;SDS011;40833;53.238;6.576;2022-12-13T10:36:52;49.37;;;23.93;;
54929;SDS011;40833;53.238;6.576;2022-12-13T10:39:34;46.67;;;24.43;;
54929;SDS011;40833;53.238;6.576;2022-12-13T10:42:02;44.80;;;22.50;;
54929;SDS011;40833;53.238;6.576;2022-12-13T10:44:29;42.97;;;21.60;;
54929;SDS011;40833;53.238;6.576;2022-12-13T10:47:00;46.10;;;22.43;;
54929;SDS011;40833;53.238;6.576;2022-12-13T10:49:49;41.27;;;21.30;;
54929;SDS011;40833;53.238;6.576;2022-12-13T10:54:52;44.50;;;21.90;;
54929;SDS011;40833;53.238;6.576;2022-12-13T10:57:18;43.73;;;20.77;;
54929;SDS011;40833;53.238;6.576;2022-12-13T10:59:45;44.70;;;22.37;;
54929;SDS011;40833;53.238;6.576;2022-12-13T11:05:15;39.83;;;21.67;;
54929;SDS011;40833;53.238;6.576;2022-12-13T11:10:39;41.08;;;19.92;;
54929;SDS011;40833;53.238;6.576;2022-12-13T11:13:06;40.33;;;21.07;;
54929;SDS011;40833;53.238;6.576;2022-12-13T11:15:33;35.77;;;19.20;;
54929;SDS011;40833;53.238;6.576;2022-12-13T11:18:03;37.17;;;20.00;;
54929;SDS011;40833;53.238;6.576;2022-12-13T11:20:35;39.50;;;20.97;;
54929;SDS011;40833;53.238;6.576;2022-12-13T11:25:47;34.57;;;18.63;;
54929;SDS011;40833;53.238;6.576;2022-12-13T11:33:55;39.17;;;21.20;;
54929;SDS011;40833;53.238;6.576;2022-12-13T11:46:51;38.73;;;19.77;;
54929;SDS011;40833;53.238;6.576;2022-12-13T12:00:26;33.75;;;17.45;;
54929;SDS011;40833;53.238;6.576;2022-12-13T12:03:00;37.53;;;18.50;;
54929;SDS011;40833;53.238;6.576;2022-12-13T12:05:40;29.50;;;17.07;;
54929;SDS011;40833;53.238;6.576;2022-12-13T12:08:25;34.37;;;16.97;;
54929;SDS011;40833;53.238;6.576;2022-12-13T12:11:01;30.87;;;17.43;;
54929;SDS011;40833;53.238;6.576;2022-12-13T12:13:38;32.27;;;17.23;;
54929;SDS011;40833;53.238;6.576;2022-12-13T12:16:13;32.23;;;18.07;;
54929;SDS011;40833;53.238;6.576;2022-12-13T12:18:55;31.80;;;17.30;;
54929;SDS011;40833;53.238;6.576;2022-12-13T12:21:37;32.27;;;16.93;;
54929;SDS011;40833;53.238;6.576;2022-12-13T12:27:47;29.97;;;16.03;;
54929;SDS011;40833;53.238;6.576;2022-12-13T12:38:35;30.40;;;14.97;;
54929;SDS011;40833;53.238;6.576;2022-12-13T12:46:58;26.53;;;14.40;;
54929;SDS011;40833;53.238;6.576;2022-12-13T12:52:28;22.60;;;13.20;;
54929;SDS011;40833;53.238;6.576;2022-12-13T13:03:24;22.40;;;14.10;;
54929;SDS011;40833;53.238;6.576;2022-12-13T13:05:54;23.03;;;13.23;;
54929;SDS011;40833;53.238;6.576;2022-12-13T13:08:29;23.48;;;12.77;;
54929;SDS011;40833;53.238;6.576;2022-12-13T13:10:56;19.92;;;12.32;;
54929;SDS011;40833;53.238;6.576;2022-12-13T13:13:33;20.97;;;12.27;;
54929;SDS011;40833;53.238;6.576;2022-12-13T13:18:52;19.00;;;12.07;;
54929;SDS011;40833;53.238;6.576;2022-12-13T13:26:29;22.90;;;12.30;;
54929;SDS011;40833;53.238;6.576;2022-12-13T13:34:47;21.37;;;12.33;;
54929;SDS011;40833;53.238;6.576;2022-12-13T13:39:53;25.27;;;13.18;;
54929;SDS011;40833;53.238;6.576;2022-12-13T13:42:22;20.93;;;12.17;;
54929;SDS011;40833;53.238;6.576;2022-12-13T13:44:54;23.45;;;12.95;;
54929;SDS011;40833;53.238;6.576;2022-12-13T13:47:30;21.38;;;12.38;;
54929;SDS011;40833;53.238;6.576;2022-12-13T14:07:48;24.50;;;12.07;;
54929;SDS011;40833;53.238;6.576;2022-12-13T14:24:11;23.30;;;13.43;;
54929;SDS011;40833;53.238;6.576;2022-12-13T14:29:11;29.27;;;14.30;;
54929;SDS011;40833;53.238;6.576;2022-12-13T14:31:46;29.53;;;14.03;;
54929;SDS011;40833;53.238;6.576;2022-12-13T14:34:21;23.97;;;14.27;;
54929;SDS011;40833;53.238;6.576;2022-12-13T14:36:53;28.00;;;16.13;;
54929;SDS011;40833;53.238;6.576;2022-12-13T14:39:29;25.70;;;15.67;;
54929;SDS011;40833;53.238;6.576;2022-12-13T14:41:58;28.53;;;15.33;;
54929;SDS011;40833;53.238;6.576;2022-12-13T14:44:30;27.43;;;15.63;;
54929;SDS011;40833;53.238;6.576;2022-12-13T14:49:26;29.57;;;16.70;;
54929;SDS011;40833;53.238;6.576;2022-12-13T14:51:58;28.50;;;16.50;;
54929;SDS011;40833;53.238;6.576;2022-12-13T14:54:42;30.37;;;17.20;;
54929;SDS011;40833;53.238;6.576;2022-12-13T14:57:28;30.87;;;17.50;;
54929;SDS011;40833;53.238;6.576;2022-12-13T14:59:56;31.33;;;18.13;;
54929;SDS011;40833;53.238;6.576;2022-12-13T15:02:25;28.07;;;17.10;;
54929;SDS011;40833;53.238;6.576;2022-12-13T15:04:56;29.17;;;17.63;;
54929;SDS011;40833;53.238;6.576;2022-12-13T15:07:27;31.07;;;18.20;;
54929;SDS011;40833;53.238;6.576;2022-12-13T15:10:17;34.20;;;18.85;;
54929;SDS011;40833;53.238;6.576;2022-12-13T15:12:49;32.07;;;18.70;;
54929;SDS011;40833;53.238;6.576;2022-12-13T15:15:27;33.10;;;19.43;;
54929;SDS011;40833;53.238;6.576;2022-12-13T15:20:31;33.30;;;20.80;;
54929;SDS011;40833;53.238;6.576;2022-12-13T15:22:57;39.33;;;20.80;;
54929;SDS011;40833;53.238;6.576;2022-12-13T15:25:28;38.73;;;20.73;;
54929;SDS011;40833;53.238;6.576;2022-12-13T15:27:56;37.20;;;20.67;;
54929;SDS011;40833;53.238;6.576;2022-12-13T15:30:22;40.57;;;22.43;;
54929;SDS011;40833;53.238;6.576;2022-12-13T15:33:04;36.47;;;21.70;;
54929;SDS011;40833;53.238;6.576;2022-12-13T15:35:32;41.33;;;21.73;;
54929;SDS011;40833;53.238;6.576;2022-12-13T15:38:00;33.27;;;20.50;;
54929;SDS011;40833;53.238;6.576;2022-12-13T15:40:26;37.60;;;22.17;;
54929;SDS011;40833;53.238;6.576;2022-12-13T15:42:53;40.33;;;21.73;;
54929;SDS011;40833;53.238;6.576;2022-12-13T15:45:23;43.67;;;23.70;;
54929;SDS011;40833;53.238;6.576;2022-12-13T15:47:51;42.20;;;22.47;;
54929;SDS011;40833;53.238;6.576;2022-12-13T15:50:35;38.50;;;22.27;;
54929;SDS011;40833;53.238;6.576;2022-12-13T15:53:04;45.37;;;23.83;;
54929;SDS011;40833;53.238;6.576;2022-12-13T15:55:41;44.60;;;24.37;;
54929;SDS011;40833;53.238;6.576;2022-12-13T15:58:21;46.43;;;24.77;;
54929;SDS011;40833;53.238;6.576;2022-12-13T16:00:57;43.50;;;24.87;;
54929;SDS011;40833;53.238;6.576;2022-12-13T16:03:29;43.72;;;25.90;;
54929;SDS011;40833;53.238;6.576;2022-12-13T16:06:07;45.70;;;24.20;;
54929;SDS011;40833;53.238;6.576;2022-12-13T16:08:37;48.73;;;26.37;;
54929;SDS011;40833;53.238;6.576;2022-12-13T16:11:04;47.80;;;25.53;;
54929;SDS011;40833;53.238;6.576;2022-12-13T16:13:32;47.10;;;25.53;;
54929;SDS011;40833;53.238;6.576;2022-12-13T16:18:53;47.37;;;24.93;;
54929;SDS011;40833;53.238;6.576;2022-12-13T16:21:21;46.00;;;24.20;;
54929;SDS011;40833;53.238;6.576;2022-12-13T16:23:47;44.40;;;23.53;;
54929;SDS011;40833;53.238;6.576;2022-12-13T16:26:13;47.73;;;25.33;;
54929;SDS011;40833;53.238;6.576;2022-12-13T16:28:44;45.00;;;24.93;;
54929;SDS011;40833;53.238;6.576;2022-12-13T16:31:15;45.03;;;24.20;;
54929;SDS011;40833;53.238;6.576;2022-12-13T16:33:46;59.50;;;32.83;;
54929;SDS011;40833;53.238;6.576;2022-12-13T16:36:12;50.00;;;26.20;;
54929;SDS011;40833;53.238;6.576;2022-12-13T16:38:38;43.20;;;23.87;;
54929;SDS011;40833;53.238;6.576;2022-12-13T16:41:04;42.03;;;22.90;;
54929;SDS011;40833;53.238;6.576;2022-12-13T16:43:31;42.10;;;21.57;;
54929;SDS011;40833;53.238;6.576;2022-12-13T16:45:58;40.07;;;20.97;;
54929;SDS011;40833;53.238;6.576;2022-12-13T16:48:27;40.63;;;22.07;;
54929;SDS011;40833;53.238;6.576;2022-12-13T16:50:53;49.07;;;25.87;;
54929;SDS011;40833;53.238;6.576;2022-12-13T16:53:19;43.67;;;22.47;;
54929;SDS011;40833;53.238;6.576;2022-12-13T16:55:45;40.83;;;21.97;;
54929;SDS011;40833;53.238;6.576;2022-12-13T16:58:11;42.87;;;22.33;;
54929;SDS011;40833;53.238;6.576;2022-12-13T17:00:38;47.87;;;22.50;;